Time;durP1;ratioP1;P1;durP2;ratioP2;P2;SDS_P1;SDS_P2;PMS_P1;PMS_P2;Temp;Humidity;BMP_temperature;BMP_pressure;BME280_temperature;BME280_humidity;BME280_pressure;Samples;Min_cycle;Max_cycle;Signal;HPM_P1;HPM_P2
2022/04/19 00:00:44;;;;;;;2.50;2.30;;;;;;;3.56;72.16;94451.84;4954173;28;20248;-61
2022/04/19 00:03:11;;;;;;;2.50;2.30;;;;;;;3.49;72.01;94446.28;4939328;28;20200;-62
2022/04/19 00:05:37;;;;;;;2.80;2.50;;;;;;;3.48;72.19;94449.03;4960266;28;20246;-61
2022/04/19 00:08:07;;;;;;;1.93;1.70;;;;;;;3.30;72.80;94438.31;4969080;28;20235;-61
2022/04/19 00:10:33;;;;;;;2.43;2.23;;;;;;;3.35;72.98;94428.38;4964475;28;20305;-61
2022/04/19 00:13:00;;;;;;;2.47;2.37;;;;;;;3.37;72.73;94436.88;4963420;28;20243;-62
2022/04/19 00:15:28;;;;;;;2.30;2.10;;;;;;;3.39;72.57;94427.16;4962687;28;20266;-62
2022/04/19 00:17:55;;;;;;;2.57;2.37;;;;;;;3.29;72.37;94434.91;4964628;28;20220;-61
2022/04/19 00:20:21;;;;;;;4.00;2.70;;;;;;;3.30;72.75;94420.94;4963010;28;20311;-61
2022/04/19 00:22:49;;;;;;;2.60;2.40;;;;;;;3.34;72.64;94429.31;4980229;28;20229;-60
2022/04/19 00:25:15;;;;;;;2.73;2.53;;;;;;;3.29;72.47;94421.91;4975851;28;20228;-60
2022/04/19 00:27:41;;;;;;;3.03;2.83;;;;;;;3.25;73.13;94424.84;4964745;28;20240;-61
2022/04/19 00:30:07;;;;;;;2.50;2.20;;;;;;;3.31;73.02;94413.97;4967235;28;20220;-61
2022/04/19 00:32:32;;;;;;;2.70;2.50;;;;;;;3.23;73.16;94408.56;4965445;28;20227;-61
2022/04/19 00:34:59;;;;;;;2.60;2.40;;;;;;;3.17;73.30;94412.47;4966022;28;20220;-61
2022/04/19 00:37:25;;;;;;;3.27;2.57;;;;;;;3.20;73.05;94409.63;4966624;28;20252;-61
2022/04/19 00:39:51;;;;;;;3.47;2.47;;;;;;;3.27;72.84;94407.38;4963826;28;20294;-61
2022/04/19 00:42:17;;;;;;;2.80;2.60;;;;;;;3.19;72.64;94400.19;4965415;28;20211;-62
2022/04/19 00:44:43;;;;;;;2.53;2.37;;;;;;;3.21;72.79;94400.09;4959502;28;20310;-61
2022/04/19 00:47:10;;;;;;;2.90;2.70;;;;;;;3.21;73.04;94403.50;4971731;28;20237;-60
2022/04/19 00:49:38;;;;;;;2.63;2.43;;;;;;;3.05;73.08;94397.88;4975840;28;20254;-60
2022/04/19 00:52:05;;;;;;;2.60;2.40;;;;;;;3.09;73.27;94389.69;4961888;28;20231;-59
2022/04/19 00:54:31;;;;;;;2.57;2.37;;;;;;;3.12;73.14;94388.63;4976275;28;20211;-60
2022/04/19 00:56:56;;;;;;;2.63;2.43;;;;;;;3.16;73.36;94397.03;4961900;28;20215;-60
2022/04/19 00:59:22;;;;;;;3.00;2.70;;;;;;;3.13;73.44;94399.84;4966223;28;20247;-60
2022/04/19 01:01:48;;;;;;;2.80;2.60;;;;;;;3.17;73.45;94401.25;4959382;28;20231;-60
2022/04/19 01:04:13;;;;;;;2.77;2.57;;;;;;;2.97;73.75;94390.69;4975815;28;20223;-61
2022/04/19 01:06:39;;;;;;;2.67;2.47;;;;;;;2.97;74.37;94389.88;4960207;28;20261;-60
2022/04/19 01:09:04;;;;;;;2.70;2.50;;;;;;;3.13;73.62;94386.84;4977896;28;20212;-60
2022/04/19 01:14:14;;;;;;;2.90;2.70;;;;;;;3.14;73.51;94385.91;4969421;28;20234;-61
2022/04/19 01:16:41;;;;;;;3.10;2.80;;;;;;;3.17;73.32;94393.47;4974387;28;20224;-60
2022/04/19 01:19:16;;;;;;;2.87;2.63;;;;;;;3.16;73.42;94378.84;4970426;28;20231;-61
2022/04/19 01:21:48;;;;;;;3.00;2.80;;;;;;;2.99;73.46;94383.56;4978229;28;20232;-61
2022/04/19 01:24:18;;;;;;;2.83;2.60;;;;;;;3.00;73.68;94382.66;4980181;28;20234;-59
2022/04/19 01:26:44;;;;;;;2.93;2.73;;;;;;;3.09;73.81;94391.47;4977946;28;20219;-60
2022/04/19 01:29:10;;;;;;;3.40;3.20;;;;;;;3.16;73.60;94382.25;4968192;28;20259;-61
2022/04/19 01:31:38;;;;;;;2.83;2.63;;;;;;;3.18;73.23;94389.91;4981284;28;20303;-63
2022/04/19 01:34:03;;;;;;;3.10;2.90;;;;;;;3.12;73.71;94393.00;4971912;28;20254;-60
2022/04/19 01:36:29;;;;;;;3.07;2.87;;;;;;;3.23;73.27;94380.78;4972013;28;20231;-60
2022/04/19 01:38:55;;;;;;;5.27;4.87;;;;;;;3.21;72.96;94379.31;4968219;28;20204;-60
2022/04/19 01:41:20;;;;;;;8.93;8.13;;;;;;;3.14;72.78;94375.53;4982977;28;20227;-61
2022/04/19 01:43:45;;;;;;;11.03;10.07;;;;;;;3.11;73.87;94388.75;4971338;28;20236;-61
2022/04/19 01:46:11;;;;;;;11.07;10.07;;;;;;;3.14;73.22;94375.53;4969070;28;20224;-60
2022/04/19 01:48:36;;;;;;;8.37;7.63;;;;;;;3.07;73.46;94386.41;4931092;28;20233;-61
2022/04/19 01:51:02;;;;;;;6.83;6.13;;;;;;;3.14;73.83;94388.53;4950401;28;20239;-61
2022/04/19 01:53:28;;;;;;;5.87;5.33;;;;;;;3.06;74.25;94389.13;4946684;28;20220;-61
2022/04/19 01:55:54;;;;;;;4.80;4.40;;;;;;;3.12;73.82;94393.00;4949112;28;20228;-60
2022/04/19 01:58:19;;;;;;;5.10;4.60;;;;;;;3.11;74.20;94383.56;4946867;28;20237;-61
2022/04/19 02:00:45;;;;;;;4.97;4.53;;;;;;;3.17;73.78;94380.47;4944752;28;20259;-61
2022/04/19 02:03:10;;;;;;;5.07;4.53;;;;;;;3.09;74.33;94389.69;4946616;28;20305;-61
2022/04/19 02:05:36;;;;;;;5.00;4.60;;;;;;;3.17;73.66;94390.88;4951324;28;20224;-61
2022/04/19 02:08:01;;;;;;;4.83;4.43;;;;;;;2.98;73.85;94381.13;4952978;28;20235;-61
2022/04/19 02:10:27;;;;;;;4.40;4.00;;;;;;;3.03;73.90;94386.78;4960007;28;20232;-60
2022/04/19 02:12:52;;;;;;;4.70;4.30;;;;;;;3.09;73.67;94379.31;4945340;28;20228;-61
2022/04/19 02:15:18;;;;;;;4.53;4.13;;;;;;;3.08;73.79;94382.03;4948822;28;20540;-61
2022/04/19 02:17:50;;;;;;;4.50;4.20;;;;;;;3.15;73.72;94377.16;4947539;28;20205;-60
2022/04/19 02:20:18;;;;;;;5.20;4.70;;;;;;;3.19;73.98;94383.78;4960565;28;20260;-60
2022/04/19 02:22:45;;;;;;;5.20;4.70;;;;;;;3.16;73.50;94376.25;4968660;28;20229;-60
2022/04/19 02:25:13;;;;;;;4.77;4.37;;;;;;;3.12;73.64;94380.00;4948592;28;20221;-61
2022/04/19 02:27:40;;;;;;;4.63;4.23;;;;;;;3.07;73.57;94378.63;4949945;28;20252;-61
2022/04/19 02:30:15;;;;;;;5.27;4.47;;;;;;;3.00;74.01;94376.63;4948833;28;20316;-60
2022/04/19 02:32:43;;;;;;;5.50;4.83;;;;;;;2.97;74.04;94376.88;4946226;28;20347;-61
2022/04/19 02:35:09;;;;;;;4.37;3.97;;;;;;;2.97;74.43;94379.47;4963152;28;20228;-61
2022/04/19 02:37:35;;;;;;;4.43;3.80;;;;;;;2.96;74.35;94377.81;4964892;28;20223;-61
2022/04/19 02:40:01;;;;;;;3.87;3.47;;;;;;;2.97;74.45;94379.47;4949661;28;20218;-74
2022/04/19 02:42:26;;;;;;;4.03;3.73;;;;;;;2.89;74.56;94382.69;4945125;28;20223;-73
2022/04/19 02:44:52;;;;;;;3.93;3.63;;;;;;;3.01;74.81;94386.88;4961208;28;20263;-68
2022/04/19 02:47:17;;;;;;;3.90;3.60;;;;;;;3.06;74.29;94384.75;4955095;28;20221;-70
2022/04/19 02:49:45;;;;;;;3.70;3.40;;;;;;;3.03;74.61;94376.38;4977429;28;20225;-69
2022/04/19 02:52:11;;;;;;;4.27;3.97;;;;;;;3.01;74.87;94383.47;4967758;28;20224;-70
2022/04/19 02:54:37;;;;;;;4.00;3.70;;;;;;;3.01;74.42;94380.88;4968630;28;20220;-70
2022/04/19 02:57:03;;;;;;;3.80;3.50;;;;;;;3.08;74.52;94382.88;4972705;28;20208;-69
2022/04/19 02:59:29;;;;;;;4.60;4.30;;;;;;;3.05;74.14;94384.88;4970434;28;20220;-68
2022/04/19 03:01:54;;;;;;;4.30;4.00;;;;;;;3.07;74.28;94388.16;4986568;28;20232;-68
2022/04/19 03:04:20;;;;;;;4.70;4.20;;;;;;;2.99;74.82;94393.16;4963340;28;20219;-70
2022/04/19 03:06:47;;;;;;;5.30;4.90;;;;;;;3.02;74.39;94391.16;4965398;28;20290;-70
2022/04/19 03:09:12;;;;;;;4.57;4.27;;;;;;;3.03;74.88;94397.16;4971101;28;20209;-69
2022/04/19 03:11:38;;;;;;;4.83;4.50;;;;;;;3.07;74.78;94391.63;4964168;28;20231;-69
2022/04/19 03:14:03;;;;;;;4.60;4.27;;;;;;;3.06;75.20;94400.34;4980460;28;20240;-63
2022/04/19 03:16:28;;;;;;;4.93;4.53;;;;;;;3.15;75.16;94403.97;4972868;28;20221;-64
2022/04/19 03:18:54;;;;;;;4.80;4.37;;;;;;;3.20;74.50;94406.22;4971483;28;20228;-64
2022/04/19 03:21:19;;;;;;;5.17;4.77;;;;;;;3.19;74.28;94412.38;4966742;28;20214;-64
2022/04/19 03:29:13;;;;;;;4.87;4.47;;;;;;;3.17;74.81;94415.06;4969083;28;20235;-72
2022/04/19 03:31:38;;;;;;;5.03;4.63;;;;;;;3.14;74.90;94411.91;4966047;28;20232;-72
2022/04/19 03:34:05;;;;;;;4.60;4.30;;;;;;;3.23;75.02;94416.34;4982683;28;20259;-72
2022/04/19 03:36:31;;;;;;;5.30;4.90;;;;;;;3.24;74.93;94418.84;4972993;28;20301;-73
2022/04/19 03:38:58;;;;;;;5.27;4.87;;;;;;;3.19;74.64;94420.16;4967667;28;20212;-73
2022/04/19 03:41:24;;;;;;;4.83;4.47;;;;;;;3.11;75.47;94417.34;4964576;28;20217;-73
2022/04/19 03:43:51;;;;;;;5.07;4.57;;;;;;;3.05;75.27;94418.66;4984684;28;20236;-73
2022/04/19 03:46:17;;;;;;;5.63;5.10;;;;;;;3.15;75.47;94432.53;4963782;28;20232;-66
2022/04/19 03:48:42;;;;;;;4.67;4.37;;;;;;;3.16;75.23;94420.41;4968146;28;20240;-66
2022/04/19 03:51:07;;;;;;;5.10;4.70;;;;;;;3.23;75.27;94427.56;4967726;28;20221;-66
2022/04/19 03:53:33;;;;;;;5.70;5.17;;;;;;;3.24;74.85;94429.22;4971093;28;20224;-66
2022/04/19 03:55:59;;;;;;;5.33;4.93;;;;;;;3.23;74.71;94437.13;4972899;28;20231;-66
2022/04/19 03:58:26;;;;;;;5.30;4.80;;;;;;;3.25;74.02;94427.47;4969850;28;20254;-66
2022/04/19 04:00:53;;;;;;;5.77;5.27;;;;;;;3.18;74.33;94437.53;4965138;28;20282;-66
2022/04/19 04:03:19;;;;;;;5.57;5.13;;;;;;;3.26;74.35;94440.34;4961544;28;20219;-62
2022/04/19 04:05:44;;;;;;;6.67;6.07;;;;;;;3.20;74.33;94438.19;4966907;28;20208;-71
2022/04/19 04:08:10;;;;;;;5.07;4.67;;;;;;;3.14;74.23;94443.06;4968751;28;20263;-63
2022/04/19 04:10:35;;;;;;;5.10;4.70;;;;;;;3.14;74.36;94445.66;4983843;28;20243;-63
2022/04/19 04:13:00;;;;;;;5.03;4.63;;;;;;;3.26;74.50;94442.09;4972914;28;20220;-63
2022/04/19 04:15:26;;;;;;;4.40;4.10;;;;;;;3.30;74.21;94448.69;4964326;28;20209;-64
2022/04/19 04:17:51;;;;;;;4.70;4.30;;;;;;;3.31;74.51;94450.34;4968552;28;20207;-63
2022/04/19 04:20:17;;;;;;;4.50;4.20;;;;;;;3.28;74.36;94454.00;4969775;28;20220;-62
2022/04/19 04:22:42;;;;;;;5.97;5.47;;;;;;;3.19;74.79;94446.97;4964983;28;20239;-63
2022/04/19 04:25:08;;;;;;;4.93;4.53;;;;;;;3.27;74.79;94451.56;4969724;28;20324;-62
2022/04/19 04:27:33;;;;;;;5.10;4.70;;;;;;;3.24;74.51;94454.41;4983506;28;20231;-64
2022/04/19 04:29:59;;;;;;;5.00;4.60;;;;;;;3.07;74.71;94459.16;4965728;28;20203;-63
2022/04/19 04:32:24;;;;;;;4.60;4.30;;;;;;;3.23;74.08;94460.53;4979180;28;20235;-63
2022/04/19 04:34:50;;;;;;;4.93;4.53;;;;;;;3.27;73.47;94457.56;4958707;28;20296;-64
2022/04/19 04:37:15;;;;;;;4.70;4.40;;;;;;;3.45;72.59;94460.50;4955739;28;20239;-63
2022/04/19 04:39:41;;;;;;;6.27;5.77;;;;;;;3.27;72.93;94459.34;4970665;28;20242;-64
2022/04/19 04:42:06;;;;;;;5.70;5.20;;;;;;;3.29;74.36;94460.88;4972193;28;20235;-63
2022/04/19 04:44:32;;;;;;;6.47;5.90;;;;;;;3.16;73.87;94462.78;4969366;28;20231;-64
2022/04/19 04:49:41;;;;;;;7.10;6.40;;;;;;;3.63;73.73;94483.34;4954968;28;20239;-65
2022/04/19 04:52:11;;;;;;;7.60;6.80;;;;;;;3.64;73.96;94477.22;4962962;28;20307;-64
2022/04/19 04:54:39;;;;;;;7.57;6.73;;;;;;;3.76;73.66;94473.63;4944940;28;20228;-64
2022/04/19 04:57:05;;;;;;;7.50;6.90;;;;;;;3.76;73.19;94468.41;4962441;28;20208;-63
2022/04/19 04:59:32;;;;;;;9.37;8.27;;;;;;;3.82;73.13;94467.91;4960298;28;20302;-63
2022/04/19 05:01:58;;;;;;;8.80;8.10;;;;;;;3.92;72.54;94466.22;4970118;28;20232;-64
2022/04/19 05:04:24;;;;;;;8.97;8.17;;;;;;;3.97;72.70;94474.47;4972510;28;20328;-63
2022/04/19 05:06:49;;;;;;;8.57;7.87;;;;;;;4.09;72.60;94479.63;4966789;28;20244;-63
2022/04/19 05:09:15;;;;;;;9.13;8.37;;;;;;;4.09;71.76;94474.41;4966984;28;20212;-64
2022/04/19 05:11:40;;;;;;;9.00;8.20;;;;;;;3.98;70.90;94472.69;4967450;28;20211;-63
2022/04/19 05:14:07;;;;;;;8.33;7.63;;;;;;;4.14;70.88;94480.06;4962873;28;20228;-63
2022/04/19 05:16:35;;;;;;;7.60;7.00;;;;;;;4.09;70.06;94477.00;4956971;28;20327;-66
2022/04/19 05:19:02;;;;;;;7.80;7.10;;;;;;;4.12;70.27;94476.78;4966293;28;20295;-65
2022/04/19 05:21:27;;;;;;;8.03;7.40;;;;;;;4.20;70.66;94474.38;4967269;28;20231;-65
2022/04/19 05:23:52;;;;;;;7.40;6.80;;;;;;;4.27;69.75;94480.72;4979868;28;20212;-65
2022/04/19 05:26:18;;;;;;;6.90;6.30;;;;;;;4.31;69.09;94474.31;4962698;28;20232;-67
2022/04/19 05:28:43;;;;;;;6.70;6.20;;;;;;;4.30;69.20;94484.84;4962063;28;20328;-65
2022/04/19 05:31:09;;;;;;;5.97;5.47;;;;;;;4.30;68.16;94480.44;4961437;28;20259;-65
2022/04/19 05:33:34;;;;;;;5.93;5.43;;;;;;;4.18;67.47;94486.69;4958265;28;20235;-65
2022/04/19 05:36:00;;;;;;;5.87;5.37;;;;;;;4.32;68.12;94486.38;4958488;28;20204;-65
2022/04/19 05:38:27;;;;;;;7.37;6.67;;;;;;;4.33;68.66;94482.81;4966410;28;20232;-67
2022/04/19 05:40:52;;;;;;;9.20;8.40;;;;;;;4.42;68.71;94479.44;4966422;28;20219;-65
2022/04/19 05:43:18;;;;;;;11.37;10.37;;;;;;;4.41;69.10;94488.22;4959118;28;20224;-63
2022/04/19 05:45:43;;;;;;;11.00;10.00;;;;;;;4.43;69.18;94488.06;4960681;28;20236;-64
2022/04/19 05:48:10;;;;;;;11.13;10.07;;;;;;;4.29;69.93;94494.44;4964994;28;20228;-64
2022/04/19 05:50:36;;;;;;;12.00;10.90;;;;;;;4.23;70.15;94491.53;4958715;28;20256;-64
2022/04/19 05:53:01;;;;;;;11.70;10.60;;;;;;;4.23;70.49;94499.31;4981865;28;20310;-63
2022/04/19 05:55:26;;;;;;;11.97;10.90;;;;;;;4.25;69.81;94493.03;4957257;28;20232;-63
2022/04/19 05:57:52;;;;;;;12.53;11.33;;;;;;;4.05;70.08;94496.44;4955358;28;20225;-68
2022/04/19 06:00:18;;;;;;;13.37;12.20;;;;;;;4.00;70.28;94496.00;4959247;28;20211;-66
2022/04/19 06:05:27;;;;;;;14.43;13.03;;;;;;;3.90;69.99;94499.34;4944138;28;20351;-68
2022/04/19 06:07:54;;;;;;;16.20;14.60;;;;;;;3.69;70.44;94511.47;4943418;28;20224;-70
2022/04/19 06:10:20;;;;;;;12.17;10.97;;;;;;;3.88;70.68;94508.22;4950175;28;20244;-69
2022/04/19 06:12:46;;;;;;;10.83;9.73;;;;;;;3.96;70.17;94504.03;4962618;28;20366;-69
2022/04/19 06:15:13;;;;;;;10.30;9.27;;;;;;;4.11;69.82;94503.75;4968051;28;20255;-66
2022/04/19 06:17:40;;;;;;;9.60;8.70;;;;;;;4.27;69.69;94508.53;4962069;28;20252;-66
2022/04/19 06:20:07;;;;;;;9.87;8.87;;;;;;;4.28;69.67;94513.63;4959127;28;20300;-67
2022/04/19 06:22:33;;;;;;;9.53;8.03;;;;;;;4.47;69.58;94509.50;4973773;28;20224;-64
2022/04/19 06:24:59;;;;;;;8.60;7.90;;;;;;;4.49;68.92;94510.16;4968088;28;20235;-67
2022/04/19 06:27:25;;;;;;;8.73;7.90;;;;;;;4.50;69.03;94506.63;4969262;28;20232;-68
2022/04/19 06:29:56;;;;;;;6.93;6.33;;;;;;;4.62;68.84;94518.63;4961182;28;20271;-69
2022/04/19 06:32:22;;;;;;;8.00;7.20;;;;;;;4.70;69.11;94512.75;4972304;28;20228;-71
2022/04/19 06:34:48;;;;;;;7.97;7.27;;;;;;;4.76;68.55;94523.50;4958263;28;20259;-69
2022/04/19 06:37:14;;;;;;;7.90;7.20;;;;;;;4.99;68.57;94520.75;4976575;28;20250;-71
2022/04/19 06:39:39;;;;;;;8.37;7.57;;;;;;;5.01;68.24;94522.25;4960085;28;20228;-64
2022/04/19 06:42:05;;;;;;;7.73;7.03;;;;;;;5.11;68.38;94522.31;4960538;28;20301;-69
2022/04/19 06:44:31;;;;;;;9.23;8.43;;;;;;;5.36;66.62;94528.84;4966011;28;20251;-70
2022/04/19 06:46:56;;;;;;;9.70;8.80;;;;;;;5.28;66.12;94513.84;4963708;28;20239;-69
2022/04/19 06:49:21;;;;;;;9.63;8.83;;;;;;;5.07;68.18;94526.94;4964612;28;20223;-69
2022/04/19 06:51:48;;;;;;;10.90;9.90;;;;;;;5.13;68.46;94524.78;4966311;28;20295;-67
2022/04/19 06:54:13;;;;;;;11.60;10.60;;;;;;;5.19;69.12;94526.88;4966038;28;20219;-66
2022/04/19 06:56:39;;;;;;;9.83;8.83;;;;;;;5.29;68.17;94523.34;4962632;28;20200;-67
2022/04/19 06:59:05;;;;;;;10.13;9.23;;;;;;;5.31;67.88;94529.22;4960684;28;20232;-69
2022/04/19 07:01:30;;;;;;;9.73;8.73;;;;;;;5.20;68.02;94526.72;4958454;28;20238;-68
2022/04/19 07:03:56;;;;;;;9.37;8.47;;;;;;;4.87;69.17;94525.22;4977809;28;20228;-70
2022/04/19 07:06:21;;;;;;;8.17;7.43;;;;;;;4.63;69.03;94518.50;4981297;28;20294;-72
2022/04/19 07:08:47;;;;;;;7.57;6.97;;;;;;;4.81;69.08;94526.56;4965350;28;20215;-67
2022/04/19 07:11:15;;;;;;;6.87;6.20;;;;;;;4.89;68.25;94531.09;4983494;28;20243;-68
2022/04/19 07:13:41;;;;;;;6.37;5.77;;;;;;;4.97;68.29;94533.06;4967859;28;20227;-68
2022/04/19 07:16:06;;;;;;;5.50;5.03;;;;;;;5.13;66.43;94540.41;4976856;28;20231;-67
2022/04/19 07:18:32;;;;;;;4.80;4.40;;;;;;;5.13;67.29;94538.63;4963129;28;20207;-71
2022/04/19 07:26:38;;;;;;;4.37;3.97;;;;;;;5.42;67.41;94546.56;4963629;28;20224;-72
2022/04/19 07:29:10;;;;;;;5.43;4.17;;;;;;;5.52;67.09;94544.00;4962933;28;20307;-66
2022/04/19 07:31:36;;;;;;;4.73;4.33;;;;;;;5.46;66.01;94547.16;4961328;28;20319;-67
2022/04/19 07:34:02;;;;;;;6.80;6.20;;;;;;;5.44;66.50;94541.22;4961389;28;20227;-66
2022/04/19 07:36:27;;;;;;;4.87;4.47;;;;;;;5.38;66.87;94544.38;4967001;28;20270;-68
2022/04/19 07:38:53;;;;;;;4.80;4.27;;;;;;;5.47;66.08;94539.16;4988933;28;20222;-67
2022/04/19 07:41:20;;;;;;;4.83;4.43;;;;;;;5.49;66.36;94549.47;4962785;28;20286;-71
2022/04/19 07:43:47;;;;;;;4.50;4.10;;;;;;;5.62;66.14;94538.81;4964123;28;20258;-69
2022/04/19 07:46:15;;;;;;;4.53;4.13;;;;;;;5.66;66.75;94545.41;4964909;28;20224;-73
2022/04/19 07:48:45;;;;;;;5.60;5.10;;;;;;;5.67;65.73;94549.69;4963351;28;20268;-68
2022/04/19 07:51:11;;;;;;;5.30;4.90;;;;;;;5.64;64.84;94553.38;4962920;28;20243;-69
2022/04/19 07:53:37;;;;;;;5.60;5.07;;;;;;;5.61;64.60;94551.00;4966636;28;20213;-69
2022/04/19 07:56:03;;;;;;;5.10;4.70;;;;;;;5.62;63.97;94546.66;4984264;28;20274;-70
2022/04/19 07:58:29;;;;;;;5.23;4.50;;;;;;;5.71;64.18;94548.44;4967721;28;20234;-67
2022/04/19 08:00:55;;;;;;;4.63;4.10;;;;;;;5.97;62.87;94543.59;4976617;28;20312;-70
2022/04/19 08:03:20;;;;;;;5.30;4.80;;;;;;;6.33;62.64;94542.09;4968364;28;20224;-68
2022/04/19 08:05:46;;;;;;;4.53;4.13;;;;;;;6.38;61.35;94539.88;4966778;28;20208;-69
2022/04/19 08:08:11;;;;;;;4.70;4.20;;;;;;;6.30;60.04;94541.53;4965309;28;20223;-63
2022/04/19 08:10:37;;;;;;;5.77;4.77;;;;;;;6.44;61.16;94540.28;4967283;28;20231;-71
2022/04/19 08:13:04;;;;;;;4.93;4.53;;;;;;;6.47;61.35;94543.47;4962367;28;20244;-67
2022/04/19 08:15:33;;;;;;;4.20;3.90;;;;;;;6.50;59.99;94540.59;4952420;28;20280;-69
2022/04/19 08:17:58;;;;;;;4.40;4.00;;;;;;;6.54;60.72;94541.13;4940857;28;20220;-68
2022/04/19 08:20:24;;;;;;;4.03;3.73;;;;;;;6.75;60.55;94541.78;4962775;28;20242;-69
2022/04/19 08:22:50;;;;;;;5.67;3.73;;;;;;;6.86;60.25;94538.19;4954844;28;20233;-69
2022/04/19 08:25:15;;;;;;;4.40;3.43;;;;;;;6.96;61.01;94536.38;4941263;28;20243;-69
2022/04/19 08:27:45;;;;;;;3.50;3.20;;;;;;;7.04;58.98;94539.09;4948755;28;20228;-66
2022/04/19 08:30:12;;;;;;;3.43;3.13;;;;;;;7.06;58.81;94537.19;4981151;28;20217;-69
2022/04/19 08:32:37;;;;;;;3.53;3.20;;;;;;;7.05;57.55;94532.91;4970248;28;20231;-67
2022/04/19 08:35:05;;;;;;;3.20;2.90;;;;;;;6.93;58.50;94534.06;4965208;28;20238;-71
2022/04/19 08:37:32;;;;;;;3.53;3.23;;;;;;;6.82;58.63;94536.84;4963697;28;20340;-69
2022/04/19 08:39:58;;;;;;;3.90;3.10;;;;;;;6.68;58.58;94532.03;4957310;28;20251;-70
2022/04/19 08:42:24;;;;;;;3.33;3.03;;;;;;;6.47;57.71;94532.19;4958561;28;20236;-66
2022/04/19 08:44:50;;;;;;;3.00;2.80;;;;;;;6.51;56.40;94529.16;4956359;28;20201;-59
2022/04/19 08:47:16;;;;;;;3.03;2.83;;;;;;;6.83;57.24;94522.78;4959378;28;20213;-59
2022/04/19 08:49:42;;;;;;;3.20;3.00;;;;;;;7.19;55.27;94522.94;4964749;28;20280;-58
2022/04/19 08:52:11;;;;;;;2.97;2.77;;;;;;;7.20;54.04;94517.59;4959310;28;20239;-62
2022/04/19 08:57:29;;;;;;;3.07;2.87;;;;;;;7.59;52.73;94519.19;4953365;28;20215;-59
2022/04/19 08:59:55;;;;;;;3.40;3.20;;;;;;;7.60;53.36;94524.31;4969343;28;20211;-58
2022/04/19 09:02:27;;;;;;;3.10;2.90;;;;;;;7.64;54.05;94522.22;4952229;28;20220;-59
2022/04/19 09:04:53;;;;;;;3.00;2.80;;;;;;;7.79;52.81;94523.38;4953842;28;20223;-59
2022/04/19 09:07:22;;;;;;;4.40;3.20;;;;;;;7.88;51.41;94514.63;4967327;28;20216;-60
2022/04/19 09:09:59;;;;;;;3.43;3.07;;;;;;;8.05;51.78;94518.25;4955950;28;20230;-59
2022/04/19 09:12:25;;;;;;;3.40;3.10;;;;;;;8.29;51.61;94509.81;4963720;28;20283;-58
2022/04/19 09:15:06;;;;;;;4.50;3.23;;;;;;;8.12;51.86;94502.75;4966377;28;20196;-61
2022/04/19 09:17:32;;;;;;;4.73;3.60;;;;;;;8.04;50.69;94508.72;4953456;28;20225;-60
2022/04/19 09:20:13;;;;;;;3.80;3.50;;;;;;;7.83;50.17;94511.66;4956215;28;20215;-61
2022/04/19 09:22:39;;;;;;;4.70;4.30;;;;;;;7.81;51.18;94510.97;4959756;28;20232;-60
2022/04/19 09:25:15;;;;;;;4.53;4.00;;;;;;;7.92;51.48;94505.53;4967916;28;20217;-60
2022/04/19 09:27:41;;;;;;;4.13;3.73;;;;;;;8.02;51.55;94508.09;4974259;28;20322;-59
2022/04/19 09:30:20;;;;;;;5.17;4.10;;;;;;;8.05;51.44;94514.81;4978058;28;20232;-61
2022/04/19 09:33:04;;;;;;;4.33;3.80;;;;;;;8.35;51.51;94505.75;4963689;28;20231;-62
2022/04/19 09:36:02;;;;;;;4.77;4.27;;;;;;;8.53;50.70;94511.84;4965503;28;20220;-62
2022/04/19 09:38:38;;;;;;;4.07;3.70;;;;;;;8.91;50.05;94494.09;4977775;28;20228;-60
2022/04/19 09:41:05;;;;;;;4.50;4.10;;;;;;;9.12;51.36;94492.91;4961398;28;20244;-60
2022/04/19 09:43:32;;;;;;;4.00;3.67;;;;;;;8.75;48.28;94504.47;4964758;28;20235;-59
2022/04/19 09:46:04;;;;;;;4.73;4.13;;;;;;;8.61;49.30;94505.84;4953010;28;20231;-63
2022/04/19 09:48:31;;;;;;;4.77;4.33;;;;;;;8.38;49.62;94500.22;4978717;28;20212;-60
2022/04/19 09:51:04;;;;;;;4.53;4.13;;;;;;;8.52;49.68;94501.50;4958150;28;20235;-59
2022/04/19 09:53:32;;;;;;;5.00;4.37;;;;;;;8.71;47.23;94490.00;4979677;28;20294;-59
2022/04/19 09:55:59;;;;;;;3.97;3.67;;;;;;;8.67;43.89;94483.44;4970903;28;20294;-60
2022/04/19 09:58:26;;;;;;;4.40;4.00;;;;;;;8.58;43.07;94485.16;4981081;28;20232;-60
2022/04/19 10:00:52;;;;;;;3.67;3.37;;;;;;;8.82;44.62;94482.72;4966337;28;20242;-59
2022/04/19 10:08:51;;;;;;;4.03;3.23;;;;;;;9.17;44.19;94491.47;4966371;28;20255;-61
2022/04/19 10:11:18;;;;;;;3.77;3.47;;;;;;;9.27;41.88;94481.69;4980293;28;20232;-59
2022/04/19 10:13:45;;;;;;;3.40;3.10;;;;;;;9.31;40.01;94481.34;4982816;28;20236;-59
2022/04/19 10:16:14;;;;;;;3.83;3.50;;;;;;;9.85;40.20;94480.06;4978436;28;20267;-62
2022/04/19 10:18:41;;;;;;;3.87;3.27;;;;;;;10.15;39.90;94476.00;4981296;28;20223;-60
2022/04/19 10:21:09;;;;;;;4.47;4.07;;;;;;;10.28;39.98;94472.13;4959806;28;20205;-61
2022/04/19 10:23:42;;;;;;;10.60;4.10;;;;;;;9.65;40.10;94476.91;4963127;28;20243;-61
2022/04/19 10:26:28;;;;;;;7.83;3.93;;;;;;;9.93;35.88;94466.13;4973185;28;20240;-61
2022/04/19 10:28:56;;;;;;;3.70;3.17;;;;;;;10.21;36.25;94460.56;4961538;28;20279;-60
2022/04/19 10:31:31;;;;;;;3.37;3.03;;;;;;;10.25;35.71;94473.22;4969443;28;20251;-60
2022/04/19 10:34:01;;;;;;;3.27;2.97;;;;;;;10.32;34.80;94457.69;4976952;28;20216;-62
2022/04/19 10:36:32;;;;;;;3.10;2.80;;;;;;;10.35;34.44;94454.72;4982492;28;20203;-60
2022/04/19 10:39:13;;;;;;;2.90;2.70;;;;;;;10.45;34.18;94465.06;4978604;28;20252;-62
2022/04/19 10:42:03;;;;;;;3.20;2.80;;;;;;;10.75;34.59;94447.81;4958773;28;20224;-60
2022/04/19 10:44:30;;;;;;;3.43;3.13;;;;;;;11.08;35.09;94451.19;4961603;28;20270;-60
2022/04/19 10:47:18;;;;;;;5.27;2.90;;;;;;;11.08;33.49;94453.00;4969950;28;20224;-59
2022/04/19 10:49:47;;;;;;;3.93;2.93;;;;;;;11.14;33.71;94452.31;4956493;28;20227;-60
2022/04/19 10:52:40;;;;;;;4.47;3.60;;;;;;;10.64;37.70;94462.13;4982430;28;20236;-61
2022/04/19 10:55:08;;;;;;;3.57;2.90;;;;;;;10.54;34.99;94445.69;4975037;28;20247;-59
2022/04/19 11:00:25;;;;;;;2.80;2.60;;;;;;;9.82;34.56;94464.63;4961240;28;20772;-58
2022/04/19 11:03:01;;;;;;;3.67;2.57;;;;;;;9.42;37.56;94473.19;4964181;28;20219;-60
2022/04/19 11:05:46;;;;;;;3.17;2.50;;;;;;;9.62;37.38;94465.88;4980247;28;20227;-60
2022/04/19 11:08:21;;;;;;;2.57;2.37;;;;;;;9.55;36.65;94462.25;4970773;28;20275;-59
2022/04/19 11:10:48;;;;;;;3.37;2.50;;;;;;;9.15;35.56;94472.41;4961281;28;20230;-61
2022/04/19 11:13:14;;;;;;;3.00;2.70;;;;;;;9.38;36.04;94469.22;4968419;28;20231;-60
2022/04/19 11:15:42;;;;;;;2.27;2.17;;;;;;;9.71;35.17;94452.63;4964814;28;20343;-59
2022/04/19 11:18:30;;;;;;;2.67;2.43;;;;;;;10.04;34.27;94457.13;4963541;28;20350;-60
2022/04/19 11:21:02;;;;;;;4.83;2.50;;;;;;;10.57;33.77;94448.78;4969512;28;20219;-61
2022/04/19 11:23:29;;;;;;;3.10;2.73;;;;;;;10.85;32.05;94450.22;4979734;28;20437;-61
2022/04/19 11:25:56;;;;;;;3.60;2.40;;;;;;;11.23;32.49;94438.16;4965891;28;20301;-61
2022/04/19 11:28:24;;;;;;;2.67;2.40;;;;;;;11.43;30.76;94443.81;4976518;28;20228;-61
2022/04/19 11:30:49;;;;;;;3.53;2.70;;;;;;;11.24;31.36;94451.13;4960886;28;20224;-62
2022/04/19 11:33:21;;;;;;;2.50;2.30;;;;;;;11.22;32.29;94441.75;4942799;28;20197;-61
2022/04/19 11:36:14;;;;;;;2.27;1.97;;;;;;;10.85;31.29;94440.53;4944329;28;20300;-61
2022/04/19 11:38:48;;;;;;;6.07;4.30;;;;;;;10.53;31.00;94444.03;4956346;28;20239;-62
2022/04/19 11:46:53;;;;;;;2.80;2.37;;;;;;;11.89;29.73;94443.94;4958717;28;20379;-58
2022/04/19 11:49:28;;;;;;;2.10;1.97;;;;;;;12.20;27.27;94438.66;4960747;28;20293;-61
2022/04/19 11:52:12;;;;;;;5.20;2.50;;;;;;;12.32;27.56;94437.25;4973256;28;20278;-59
2022/04/19 11:54:39;;;;;;;4.57;1.67;;;;;;;11.76;25.94;94422.59;4977317;28;20248;-63
2022/04/19 11:57:07;;;;;;;1.83;1.70;;;;;;;10.86;27.46;94442.19;4964691;28;20204;-64
2022/04/19 11:59:36;;;;;;;3.03;1.43;;;;;;;10.37;26.40;94474.59;4964525;28;20228;-64
2022/04/19 12:02:03;;;;;;;2.73;1.67;;;;;;;9.86;27.86;94447.59;4960994;28;20236;-65
2022/04/19 12:04:30;;;;;;;1.60;1.50;;;;;;;9.37;30.84;94465.78;4976728;28;20257;-62
2022/04/19 12:07:00;;;;;;;3.10;1.93;;;;;;;8.88;35.03;94467.38;4979004;28;20238;-65
2022/04/19 12:09:26;;;;;;;2.20;2.00;;;;;;;9.06;36.39;94468.09;4968681;28;20199;-64
2022/04/19 12:11:53;;;;;;;2.47;2.10;;;;;;;9.37;38.68;94452.69;4963893;28;20220;-65
2022/04/19 12:14:31;;;;;;;3.30;2.10;;;;;;;9.47;36.90;94468.31;4980233;28;20259;-64
2022/04/19 12:17:03;;;;;;;2.53;2.27;;;;;;;9.95;36.27;94453.66;4978969;28;20220;-62